createdAt,value
2022-10-03T00:00:02.404Z,10.03
2022-10-03T00:15:17.062Z,9.87
2022-10-03T00:30:24.589Z,9.87
2022-10-03T00:45:32.500Z,9.72
2022-10-03T01:00:34.537Z,9.61
2022-10-03T01:15:39.160Z,9.67
2022-10-03T01:30:42.377Z,9.70
2022-10-03T01:46:03.126Z,9.83
2022-10-03T02:01:07.890Z,9.89
2022-10-03T02:16:30.150Z,9.88
2022-10-03T02:31:50.279Z,9.87
2022-10-03T02:47:11.144Z,9.84
2022-10-03T03:02:48.666Z,9.75
2022-10-03T03:18:05.634Z,9.76
2022-10-03T03:33:07.947Z,9.62
2022-10-03T03:48:12.134Z,9.61
2022-10-03T04:03:44.707Z,9.61
2022-10-03T04:18:58.670Z,9.68
2022-10-03T04:34:21.054Z,9.70
2022-10-03T04:49:32.110Z,9.65
2022-10-03T05:04:39.205Z,9.50
2022-10-03T05:19:51.042Z,9.39
2022-10-03T05:34:59.079Z,9.29
2022-10-03T05:50:41.951Z,9.20
2022-10-03T06:05:52.670Z,9.94
2022-10-03T06:20:55.055Z,10.92
2022-10-03T06:36:03.294Z,11.69
2022-10-03T06:51:27.132Z,10.67
2022-10-03T07:06:51.290Z,10.35
2022-10-03T07:22:08.693Z,10.57
2022-10-03T07:37:29.338Z,11.67
2022-10-03T07:52:38.065Z,11.37
2022-10-03T08:07:48.727Z,10.98
2022-10-03T08:23:05.915Z,10.74
2022-10-03T08:38:11.707Z,10.61
2022-10-03T08:53:22.922Z,11.21
2022-10-03T09:08:24.785Z,10.63
2022-10-03T09:23:45.399Z,10.67
2022-10-03T09:38:47.265Z,13.37
2022-10-03T09:53:53.056Z,13.05
2022-10-03T10:09:13.650Z,14.17
2022-10-03T10:24:36.390Z,15.84
2022-10-03T10:39:57.084Z,13.12
2022-10-03T10:55:03.714Z,14.57
2022-10-03T11:10:09.224Z,13.06
2022-10-03T11:25:17.341Z,12.44
2022-10-03T11:40:23.311Z,14.92
2022-10-03T11:55:25.231Z,13.73
2022-10-03T12:10:27.986Z,12.95
2022-10-03T12:25:34.761Z,13.07
2022-10-03T12:40:50.037Z,16.41
2022-10-03T12:56:04.392Z,17.66
2022-10-03T13:11:09.399Z,16.20
2022-10-03T13:26:15.938Z,13.82
2022-10-03T13:41:34.600Z,13.32
2022-10-03T13:56:39.775Z,13.51
2022-10-03T14:12:00.448Z,13.49
2022-10-03T14:27:11.487Z,13.16
2022-10-03T14:42:33.162Z,12.83
2022-10-03T14:58:11.725Z,12.57
2022-10-03T15:13:14.839Z,12.47
2022-10-03T15:28:19.661Z,12.13
2022-10-03T15:43:28.462Z,11.37
2022-10-03T15:58:33.774Z,11.09
2022-10-03T16:13:39.455Z,10.80
2022-10-03T16:28:45.054Z,10.49
2022-10-03T16:43:57.303Z,10.15
2022-10-03T16:59:01.098Z,9.82
2022-10-03T17:14:04.220Z,9.56
2022-10-03T17:29:11.117Z,9.26
2022-10-03T17:44:17.509Z,9.26
2022-10-03T17:59:20.532Z,8.93
2022-10-03T18:14:28.154Z,8.91
2022-10-03T18:29:37.182Z,8.93
2022-10-03T18:44:39.340Z,8.81
2022-10-03T18:59:42.992Z,8.56
2022-10-03T19:14:51.197Z,8.60
2022-10-03T19:29:53.938Z,8.75
2022-10-03T19:44:56.927Z,8.62
2022-10-03T20:00:00.014Z,7.94
2022-10-03T20:15:06.738Z,8.14
2022-10-03T20:30:21.081Z,7.72
2022-10-03T20:45:26.367Z,7.49
2022-10-03T21:00:28.276Z,7.58
2022-10-03T21:15:38.006Z,7.28
2022-10-03T21:30:45.644Z,7.06
2022-10-03T21:46:10.859Z,6.65
2022-10-03T22:01:27.322Z,6.57
2022-10-03T22:16:32.280Z,6.59
2022-10-03T22:31:36.324Z,6.31
2022-10-03T22:46:38.711Z,6.20
2022-10-03T23:01:41.814Z,5.96
2022-10-03T23:17:02.566Z,5.67
2022-10-03T23:32:04.990Z,5.74
2022-10-03T23:47:07.061Z,5.59
